Time;durP1;ratioP1;P1;durP2;ratioP2;P2;SDS_P1;SDS_P2;PMS_P1;PMS_P2;Temp;Humidity;BMP_temperature;BMP_pressure;BME280_temperature;BME280_humidity;BME280_pressure;Samples;Min_cycle;Max_cycle;Signal;HPM_P1;HPM_P2
2024/04/14 00:00:27;;;;;;;1.90;1.03;;;;;20.70;100804.00;;;;2225739;26;20296;-56
2024/04/14 00:01:27;;;;;;;1.95;0.95;;;;;20.70;100807.00;;;;2208164;26;20271;-58
2024/04/14 00:02:28;;;;;;;2.33;1.03;;;;;20.70;100809.00;;;;2221538;26;20258;-58
2024/04/14 00:03:28;;;;;;;1.90;0.93;;;;;20.70;100812.00;;;;2218058;26;20301;-57
2024/04/14 00:04:29;;;;;;;1.90;1.13;;;;;20.70;100806.00;;;;2228881;26;20258;-55
2024/04/14 00:05:29;;;;;;;1.83;0.90;;;;;20.70;100799.00;;;;2222094;26;20259;-57
2024/04/14 00:06:30;;;;;;;2.80;1.40;;;;;20.70;100817.00;;;;2222675;26;20586;-59
2024/04/14 00:07:30;;;;;;;2.10;1.13;;;;;20.70;100811.00;;;;2218554;26;20314;-59
2024/04/14 00:08:30;;;;;;;1.70;0.80;;;;;20.20;100813.00;;;;2218564;26;20267;-58
2024/04/14 00:09:31;;;;;;;3.00;1.33;;;;;20.70;100818.00;;;;2223274;26;20288;-56
2024/04/14 00:10:31;;;;;;;2.23;1.07;;;;;20.70;100814.00;;;;2223162;26;20300;-57
2024/04/14 00:11:31;;;;;;;1.80;1.00;;;;;20.70;100816.00;;;;2210530;26;20255;-56
2024/04/14 00:12:32;;;;;;;2.80;1.03;;;;;20.70;100821.00;;;;2219030;26;20263;-57
2024/04/14 00:13:32;;;;;;;2.10;1.17;;;;;20.70;100822.00;;;;2225540;26;20716;-58
2024/04/14 00:14:32;;;;;;;2.27;1.10;;;;;20.70;100765.00;;;;2228274;26;20570;-58
2024/04/14 00:15:33;;;;;;;2.27;1.33;;;;;20.70;100655.00;;;;2218975;26;20595;-57
2024/04/14 00:16:33;;;;;;;2.37;1.23;;;;;20.70;100814.00;;;;2210428;26;20676;-55
2024/04/14 00:17:33;;;;;;;3.93;1.23;;;;;20.70;100813.00;;;;2230945;26;20276;-59
2024/04/14 00:18:34;;;;;;;2.20;1.13;;;;;20.70;100827.00;;;;2212804;26;20247;-58
2024/04/14 00:19:34;;;;;;;2.40;1.30;;;;;20.70;100824.00;;;;2222404;26;20721;-58
2024/04/14 00:20:35;;;;;;;2.23;1.20;;;;;20.70;100818.00;;;;2224587;26;20985;-58
2024/04/14 00:21:35;;;;;;;2.30;1.30;;;;;20.70;100819.00;;;;2213666;26;20919;-58
2024/04/14 00:22:35;;;;;;;2.10;1.30;;;;;20.70;100814.00;;;;2223447;26;20352;-55
2024/04/14 00:23:36;;;;;;;2.10;1.10;;;;;20.70;100816.00;;;;2222614;26;20771;-56
2024/04/14 00:24:36;;;;;;;2.10;1.10;;;;;20.70;100820.00;;;;2219168;26;20248;-58
2024/04/14 00:25:37;;;;;;;2.00;1.13;;;;;20.70;100821.00;;;;2224116;26;20252;-57
2024/04/14 00:26:37;;;;;;;2.17;1.20;;;;;20.70;100825.00;;;;2216996;26;20255;-59
2024/04/14 00:27:37;;;;;;;2.20;1.20;;;;;20.70;100818.00;;;;2235056;26;20378;-58
2024/04/14 00:28:38;;;;;;;2.80;1.30;;;;;20.70;100814.00;;;;2224394;26;20271;-59
2024/04/14 00:29:38;;;;;;;2.10;1.00;;;;;20.70;100825.00;;;;2231357;26;20275;-58
2024/04/14 00:30:41;;;;;;;2.30;1.00;;;;;20.70;100844.00;;;;2229586;26;20588;-56
2024/04/14 00:31:41;;;;;;;2.05;1.10;;;;;20.30;100818.00;;;;2209825;26;20993;-57
2024/04/14 00:32:41;;;;;;;2.57;1.17;;;;;20.70;100826.00;;;;2219753;26;20255;-58
2024/04/14 00:33:42;;;;;;;1.97;1.10;;;;;20.70;100849.00;;;;2223453;26;21228;-57
2024/04/14 00:34:42;;;;;;;2.60;1.50;;;;;20.70;100826.00;;;;2225304;26;21404;-56
2024/04/14 00:35:42;;;;;;;2.13;1.13;;;;;20.70;100830.00;;;;2229025;26;20263;-57
2024/04/14 00:36:43;;;;;;;2.27;1.07;;;;;20.70;100825.00;;;;2209403;26;20294;-55
2024/04/14 00:37:44;;;;;;;2.57;1.60;;;;;20.70;100823.00;;;;2222341;26;20289;-57
2024/04/14 00:38:44;;;;;;;2.08;1.20;;;;;20.70;100822.00;;;;2221020;26;20290;-55
2024/04/14 00:39:45;;;;;;;2.13;1.13;;;;;20.70;100826.00;;;;2219693;26;20857;-58
2024/04/14 00:40:45;;;;;;;2.50;1.43;;;;;20.70;100824.00;;;;2219159;26;20874;-55
2024/04/14 00:41:45;;;;;;;2.50;1.20;;;;;20.70;100823.00;;;;2222382;26;20298;-58
2024/04/14 00:42:46;;;;;;;2.30;0.97;;;;;20.70;100823.00;;;;2231103;26;20403;-57
2024/04/14 00:43:46;;;;;;;2.13;1.20;;;;;20.70;100832.00;;;;2227200;26;20259;-57
2024/04/14 00:44:47;;;;;;;2.70;1.30;;;;;20.70;100834.00;;;;2227012;26;20304;-59
2024/04/14 00:45:47;;;;;;;2.10;1.20;;;;;20.70;100838.00;;;;2225862;26;20803;-58
2024/04/14 00:46:47;;;;;;;2.60;1.07;;;;;20.70;100833.00;;;;2222800;26;20528;-59
2024/04/14 00:47:48;;;;;;;2.30;1.30;;;;;20.70;100832.00;;;;2232084;26;20262;-58
2024/04/14 00:48:48;;;;;;;2.10;1.10;;;;;20.70;100834.00;;;;2227740;26;20251;-56
2024/04/14 00:49:49;;;;;;;2.43;1.20;;;;;20.70;100885.00;;;;2227025;26;20355;-56
2024/04/14 00:50:49;;;;;;;2.73;1.40;;;;;20.70;100844.00;;;;2230210;26;21041;-56
2024/04/14 00:51:49;;;;;;;4.10;1.30;;;;;20.70;100846.00;;;;2213953;26;20862;-57
2024/04/14 00:52:50;;;;;;;2.57;1.40;;;;;20.70;100844.00;;;;2219138;26;20259;-57
2024/04/14 00:53:51;;;;;;;2.20;1.30;;;;;20.70;100815.00;;;;2204573;26;20260;-59
2024/04/14 00:54:51;;;;;;;2.40;1.17;;;;;20.70;100844.00;;;;2189090;26;20273;-55
2024/04/14 00:55:51;;;;;;;2.13;1.10;;;;;20.70;100845.00;;;;2225273;26;20296;-56
2024/04/14 00:56:52;;;;;;;3.07;1.07;;;;;20.70;100846.00;;;;2193588;26;20256;-57
2024/04/14 00:57:52;;;;;;;2.30;1.40;;;;;20.70;100836.00;;;;2215738;26;20251;-58
2024/04/14 00:58:52;;;;;;;2.73;1.00;;;;;20.70;100831.00;;;;2247582;26;20361;-56
2024/04/14 00:59:53;;;;;;;2.00;1.00;;;;;20.70;100850.00;;;;2231207;26;20288;-56
2024/04/14 01:00:53;;;;;;;2.90;1.37;;;;;20.70;100850.00;;;;2202282;26;20295;-57
2024/04/14 01:01:53;;;;;;;2.73;1.27;;;;;20.70;100850.00;;;;2176782;26;20353;-57
2024/04/14 01:02:55;;;;;;;2.80;1.13;;;;;20.70;100846.00;;;;2223603;26;20254;-57
2024/04/14 01:03:55;;;;;;;2.38;1.10;;;;;20.70;100849.00;;;;2225049;26;20267;-56
2024/04/14 01:04:56;;;;;;;2.07;1.10;;;;;20.70;100849.00;;;;2218594;26;20255;-55
2024/04/14 01:05:56;;;;;;;2.47;1.40;;;;;20.70;100835.00;;;;2217811;26;20300;-57
2024/04/14 01:06:57;;;;;;;2.23;1.00;;;;;20.70;100853.00;;;;2227359;26;20297;-57
2024/04/14 01:07:57;;;;;;;2.30;1.23;;;;;20.70;100854.00;;;;2224408;26;20259;-58
2024/04/14 01:08:57;;;;;;;2.17;1.20;;;;;20.70;100855.00;;;;2228393;26;20581;-56
2024/04/14 01:09:58;;;;;;;3.17;1.30;;;;;20.70;100849.00;;;;2218618;26;20767;-55
2024/04/14 01:10:58;;;;;;;2.17;1.10;;;;;20.70;100855.00;;;;2207577;26;20986;-56
2024/04/14 01:11:58;;;;;;;2.07;1.23;;;;;20.70;100858.00;;;;2220812;26;20301;-58
2024/04/14 01:12:59;;;;;;;2.30;1.20;;;;;20.70;100859.00;;;;2227576;26;20276;-58
2024/04/14 01:14:03;;;;;;;2.90;1.10;;;;;20.30;100849.00;;;;2222968;26;20255;-58
2024/04/14 01:15:03;;;;;;;2.13;1.05;;;;;20.70;100854.00;;;;2224893;26;20266;-57
2024/04/14 01:16:04;;;;;;;2.63;1.23;;;;;20.70;100864.00;;;;2207997;26;20297;-57
2024/04/14 01:17:06;;;;;;;1.77;0.97;;;;;20.70;100863.00;;;;2231125;26;20320;-57
2024/04/14 01:18:07;;;;;;;2.55;1.23;;;;;20.60;100862.00;;;;2223791;26;20298;-57
2024/04/14 01:19:08;;;;;;;2.80;1.42;;;;;20.70;100864.00;;;;2225517;26;20254;-57
2024/04/14 01:20:08;;;;;;;2.33;1.23;;;;;20.60;100855.00;;;;2222929;26;20293;-58
2024/04/14 01:21:09;;;;;;;2.10;1.20;;;;;20.70;100858.00;;;;2200175;26;20977;-55
2024/04/14 01:22:09;;;;;;;2.30;1.37;;;;;20.70;100863.00;;;;2214718;26;20259;-57
2024/04/14 01:23:09;;;;;;;2.33;1.20;;;;;20.60;100865.00;;;;2221519;26;20815;-57
2024/04/14 01:24:10;;;;;;;2.00;1.10;;;;;20.70;100865.00;;;;2219760;26;20630;-58
2024/04/14 01:25:11;;;;;;;1.93;0.87;;;;;20.70;100868.00;;;;2228809;26;21057;-58
2024/04/14 01:26:11;;;;;;;3.00;1.00;;;;;20.60;100873.00;;;;2217660;26;20289;-57
2024/04/14 01:27:12;;;;;;;2.20;1.00;;;;;20.70;100864.00;;;;2219728;26;20263;-58
2024/04/14 01:28:12;;;;;;;2.20;1.10;;;;;20.70;100872.00;;;;2223184;26;20364;-60
2024/04/14 01:29:12;;;;;;;2.30;1.20;;;;;20.70;100871.00;;;;2222461;26;20283;-59
2024/04/14 01:30:13;;;;;;;2.17;1.20;;;;;20.70;100871.00;;;;2219315;26;20252;-62
2024/04/14 01:31:13;;;;;;;3.33;1.10;;;;;20.60;100868.00;;;;2208078;26;20337;-55
2024/04/14 01:32:14;;;;;;;2.80;1.30;;;;;20.70;100872.00;;;;2219584;26;20356;-57
2024/04/14 01:33:15;;;;;;;2.10;1.10;;;;;20.70;100865.00;;;;2219575;26;20251;-58
2024/04/14 01:34:17;;;;;;;2.83;1.45;;;;;20.60;100937.00;;;;2231875;26;20563;-56
2024/04/14 01:35:17;;;;;;;2.20;1.10;;;;;20.70;100880.00;;;;2220535;26;20314;-57
2024/04/14 01:36:17;;;;;;;2.17;1.33;;;;;20.60;100883.00;;;;2205931;26;20264;-56
2024/04/14 01:37:18;;;;;;;2.20;1.23;;;;;20.60;100880.00;;;;2232725;26;20285;-58
2024/04/14 01:38:18;;;;;;;2.70;1.13;;;;;20.60;100883.00;;;;2229208;26;20297;-58
2024/04/14 01:39:19;;;;;;;3.13;1.73;;;;;20.70;100884.00;;;;2221028;26;20255;-59
2024/04/14 01:40:19;;;;;;;2.27;1.33;;;;;20.60;100884.00;;;;2223327;26;20262;-57
2024/04/14 01:41:20;;;;;;;2.37;1.30;;;;;20.60;100888.00;;;;2210036;26;20364;-58
2024/04/14 01:42:22;;;;;;;2.30;1.03;;;;;20.70;100876.00;;;;2218410;26;20266;-58
2024/04/14 01:43:22;;;;;;;1.90;1.10;;;;;20.70;100882.00;;;;2202103;26;20252;-57
2024/04/14 01:44:23;;;;;;;1.90;1.00;;;;;20.70;100875.00;;;;2218251;26;20315;-57
2024/04/14 01:45:23;;;;;;;4.43;1.50;;;;;20.70;100880.00;;;;2223427;26;20414;-57
2024/04/14 01:46:23;;;;;;;1.87;0.90;;;;;20.60;100885.00;;;;2210043;26;20255;-59
2024/04/14 01:47:24;;;;;;;1.93;0.97;;;;;20.60;100881.00;;;;2219203;26;20359;-59
2024/04/14 01:48:24;;;;;;;2.10;1.10;;;;;20.70;100876.00;;;;2232516;26;20305;-56
2024/04/14 01:49:24;;;;;;;2.53;1.17;;;;;20.60;100879.00;;;;2218649;26;20804;-57
2024/04/14 01:50:25;;;;;;;2.30;1.40;;;;;20.70;100883.00;;;;2219207;26;20304;-57
2024/04/14 01:51:25;;;;;;;1.80;0.97;;;;;20.60;100883.00;;;;2221752;26;20296;-60
2024/04/14 01:52:25;;;;;;;2.93;1.07;;;;;20.60;100888.00;;;;2218060;26;20255;-56
2024/04/14 01:53:26;;;;;;;3.17;1.60;;;;;20.70;100893.00;;;;2218097;26;20263;-57
2024/04/14 01:54:26;;;;;;;2.60;1.30;;;;;20.60;100883.00;;;;2219264;26;20362;-58
2024/04/14 01:55:26;;;;;;;2.33;1.30;;;;;20.60;100886.00;;;;2218159;26;20298;-56
2024/04/14 01:56:27;;;;;;;2.23;1.07;;;;;20.60;100886.00;;;;2207962;26;20297;-56
2024/04/14 01:57:27;;;;;;;2.40;1.30;;;;;20.60;100889.00;;;;2220290;26;20309;-57
2024/04/14 01:58:27;;;;;;;2.00;1.17;;;;;20.70;100886.00;;;;2219275;26;20306;-58
2024/04/14 01:59:28;;;;;;;2.60;1.03;;;;;20.70;100896.00;;;;2220777;26;20942;-56
2024/04/14 02:00:28;;;;;;;2.23;1.10;;;;;20.70;100898.00;;;;2219431;26;20738;-59
2024/04/14 02:01:29;;;;;;;3.07;1.20;;;;;20.70;100894.00;;;;2208621;26;20344;-55
2024/04/14 02:02:29;;;;;;;2.67;1.40;;;;;20.70;100900.00;;;;2228178;26;20602;-56
2024/04/14 02:03:29;;;;;;;2.10;1.20;;;;;20.60;100894.00;;;;2218224;26;20317;-58
2024/04/14 02:04:30;;;;;;;2.10;1.27;;;;;20.70;100895.00;;;;2218557;26;20643;-57
2024/04/14 02:05:30;;;;;;;2.33;1.10;;;;;20.70;100902.00;;;;2218751;26;20576;-58
2024/04/14 02:06:30;;;;;;;1.97;0.80;;;;;20.60;100887.00;;;;2207154;26;21147;-57
2024/04/14 02:07:31;;;;;;;1.90;1.00;;;;;20.60;100903.00;;;;2231292;26;20266;-56
2024/04/14 02:08:31;;;;;;;2.23;0.93;;;;;20.70;100915.00;;;;2221936;26;20255;-55
2024/04/14 02:09:31;;;;;;;2.17;1.00;;;;;20.60;100902.00;;;;2228396;26;20643;-57
2024/04/14 02:10:32;;;;;;;2.47;1.10;;;;;20.70;100894.00;;;;2219659;26;20716;-57
2024/04/14 02:11:32;;;;;;;2.00;0.97;;;;;20.70;100905.00;;;;2201502;26;20866;-58
2024/04/14 02:12:32;;;;;;;2.40;1.27;;;;;20.70;100900.00;;;;2204939;26;20767;-57
2024/04/14 02:13:33;;;;;;;2.20;1.17;;;;;20.70;100907.00;;;;2219333;26;27388;-57
2024/04/14 02:14:33;;;;;;;2.27;1.10;;;;;20.70;100908.00;;;;2230333;26;20752;-57
2024/04/14 02:15:33;;;;;;;1.80;1.00;;;;;20.70;100907.00;;;;2223213;26;20654;-57
2024/04/14 02:16:34;;;;;;;2.60;1.20;;;;;20.70;100902.00;;;;2212942;26;20711;-55
2024/04/14 02:17:34;;;;;;;2.70;0.93;;;;;20.60;100903.00;;;;2219154;26;20754;-57
2024/04/14 02:18:34;;;;;;;1.97;0.90;;;;;20.70;100911.00;;;;2223866;26;20703;-58
2024/04/14 02:19:35;;;;;;;2.10;1.00;;;;;20.70;100905.00;;;;2218981;26;20308;-56
2024/04/14 02:20:35;;;;;;;2.33;1.20;;;;;20.70;100905.00;;;;2219482;26;20251;-57
2024/04/14 02:21:35;;;;;;;2.33;1.10;;;;;20.70;100909.00;;;;2209530;26;20259;-57
2024/04/14 02:22:36;;;;;;;2.30;0.80;;;;;20.30;100910.00;;;;2218275;26;20259;-59
2024/04/14 02:23:38;;;;;;;2.07;1.00;;;;;20.70;100905.00;;;;2220040;26;20248;-56
2024/04/14 02:24:38;;;;;;;2.00;1.05;;;;;20.70;100902.00;;;;2218117;26;20266;-57
2024/04/14 02:25:39;;;;;;;2.40;1.10;;;;;20.70;100908.00;;;;2218520;26;20664;-57
2024/04/14 02:26:39;;;;;;;2.73;1.23;;;;;20.70;100911.00;;;;2208796;26;20321;-56
2024/04/14 02:27:40;;;;;;;1.90;0.87;;;;;20.60;100909.00;;;;2219254;26;20247;-57
2024/04/14 02:28:40;;;;;;;2.40;1.13;;;;;20.60;100909.00;;;;2220065;26;20248;-59
2024/04/14 02:29:40;;;;;;;2.30;0.90;;;;;20.30;100904.00;;;;2219186;26;20239;-55
2024/04/14 02:30:41;;;;;;;2.00;0.97;;;;;20.30;100913.00;;;;2221681;26;20325;-58
2024/04/14 02:31:41;;;;;;;2.20;0.90;;;;;20.20;100909.00;;;;2215350;26;20274;-56
2024/04/14 02:32:41;;;;;;;2.50;1.10;;;;;20.70;100914.00;;;;2217031;26;20344;-58
2024/04/14 02:33:42;;;;;;;2.00;1.00;;;;;20.70;100916.00;;;;2228659;26;20333;-58
2024/04/14 02:34:42;;;;;;;2.60;1.10;;;;;20.70;100913.00;;;;2220957;26;20248;-57
2024/04/14 02:35:58;;;;;;;2.33;1.10;;;;;20.60;100912.00;;;;2221049;26;20302;-57
2024/04/14 02:36:59;;;;;;;2.30;1.00;;;;;20.60;100920.00;;;;2218767;26;20252;-55
2024/04/14 02:37:59;;;;;;;1.83;0.93;;;;;20.70;100917.00;;;;2220769;26;21080;-57
2024/04/14 02:38:59;;;;;;;2.00;0.87;;;;;20.60;100913.00;;;;2219477;26;20849;-57
2024/04/14 02:40:00;;;;;;;2.53;1.10;;;;;20.70;100927.00;;;;2219029;26;20251;-59
2024/04/14 02:41:03;;;;;;;2.03;1.20;;;;;20.60;100923.00;;;;2210982;26;20301;-58
2024/04/14 02:42:03;;;;;;;1.83;0.88;;;;;20.60;100900.00;;;;2226747;26;20531;-58
2024/04/14 02:43:03;;;;;;;2.93;0.93;;;;;20.60;100915.00;;;;2218113;26;20256;-56
2024/04/14 02:44:05;;;;;;;2.43;1.30;;;;;20.60;100911.00;;;;2220106;26;20362;-57
2024/04/14 02:45:05;;;;;;;2.10;1.10;;;;;20.60;100912.00;;;;2230653;26;20825;-55
2024/04/14 02:46:06;;;;;;;2.20;1.00;;;;;20.60;100916.00;;;;2220969;26;20253;-57
2024/04/14 02:47:06;;;;;;;2.30;1.10;;;;;20.60;100909.00;;;;2225558;26;20263;-57
2024/04/14 02:48:06;;;;;;;2.07;1.20;;;;;20.60;100916.00;;;;2220227;26;20290;-59
2024/04/14 02:49:07;;;;;;;2.30;1.30;;;;;20.60;100919.00;;;;2219024;26;20251;-59
2024/04/14 02:50:07;;;;;;;2.23;1.10;;;;;20.60;100942.00;;;;2228779;26;20731;-59
2024/04/14 02:51:07;;;;;;;2.13;0.93;;;;;20.60;100950.00;;;;2221250;26;20761;-59
2024/04/14 02:52:08;;;;;;;2.80;1.20;;;;;20.60;100912.00;;;;2226483;26;21345;-56
2024/04/14 02:53:10;;;;;;;1.97;0.90;;;;;20.70;100908.00;;;;2226593;26;20992;-57
2024/04/14 02:54:10;;;;;;;1.90;0.82;;;;;20.70;100904.00;;;;2225143;26;20251;-57
2024/04/14 02:55:10;;;;;;;3.40;1.20;;;;;20.70;100913.00;;;;2219326;26;20332;-59
2024/04/14 02:56:11;;;;;;;2.10;1.00;;;;;20.70;100915.00;;;;2217034;26;20262;-57
2024/04/14 02:57:11;;;;;;;2.20;1.30;;;;;20.70;100915.00;;;;2231710;26;20356;-57
2024/04/14 02:58:11;;;;;;;2.47;1.17;;;;;20.70;100920.00;;;;2224314;26;20285;-59
2024/04/14 02:59:12;;;;;;;2.17;1.07;;;;;20.30;100918.00;;;;2223789;26;20303;-58
2024/04/14 03:00:14;;;;;;;2.13;1.00;;;;;20.70;100925.00;;;;2233579;26;20254;-57
2024/04/14 03:01:16;;;;;;;2.08;0.98;;;;;20.70;100920.00;;;;2218231;26;20567;-55
2024/04/14 03:02:17;;;;;;;2.20;1.02;;;;;20.70;100915.00;;;;2226329;26;20250;-58
2024/04/14 03:03:17;;;;;;;2.43;1.07;;;;;20.70;100936.00;;;;2221864;26;20728;-57
2024/04/14 03:04:17;;;;;;;2.27;1.10;;;;;20.70;100925.00;;;;2221251;26;21002;-59
2024/04/14 03:05:18;;;;;;;2.07;1.00;;;;;20.70;100924.00;;;;2221858;26;20305;-59
2024/04/14 03:06:18;;;;;;;2.53;1.17;;;;;20.70;100935.00;;;;2213423;26;20603;-58
2024/04/14 03:07:18;;;;;;;1.80;0.90;;;;;20.60;100928.00;;;;2220461;26;20254;-56
2024/04/14 03:08:19;;;;;;;2.30;0.97;;;;;20.60;100928.00;;;;2218900;26;20293;-56
2024/04/14 03:09:19;;;;;;;2.43;1.13;;;;;20.70;100916.00;;;;2227287;26;20250;-57
2024/04/14 03:10:20;;;;;;;2.50;1.35;;;;;20.70;100923.00;;;;2227067;26;21030;-59
2024/04/14 03:11:21;;;;;;;2.37;1.07;;;;;20.70;100920.00;;;;2211327;26;20371;-57
2024/04/14 03:12:21;;;;;;;2.13;1.00;;;;;20.70;100924.00;;;;2221599;26;20294;-57
2024/04/14 03:13:21;;;;;;;2.23;1.10;;;;;20.60;100923.00;;;;2226741;26;20254;-58
2024/04/14 03:14:22;;;;;;;3.83;1.00;;;;;20.60;100918.00;;;;2230694;26;20262;-58
2024/04/14 03:15:22;;;;;;;4.50;1.33;;;;;20.70;100923.00;;;;2230007;26;20250;-58
2024/04/14 03:16:22;;;;;;;3.13;1.30;;;;;20.70;100927.00;;;;2211045;26;20321;-58
2024/04/14 03:17:25;;;;;;;3.30;1.17;;;;;20.70;100932.00;;;;2230216;26;20246;-59
2024/04/14 03:18:26;;;;;;;1.75;0.70;;;;;20.70;100935.00;;;;2223492;26;20618;-59
2024/04/14 03:19:26;;;;;;;2.37;1.03;;;;;20.70;100929.00;;;;2220745;26;20351;-58
2024/04/14 03:20:26;;;;;;;2.20;1.07;;;;;20.70;100927.00;;;;2219609;26;20268;-57
2024/04/14 03:21:27;;;;;;;1.90;1.10;;;;;20.70;100940.00;;;;2208973;26;20263;-58
2024/04/14 03:22:27;;;;;;;2.17;1.20;;;;;20.70;100934.00;;;;2218727;26;20290;-55
2024/04/14 03:23:27;;;;;;;2.93;1.00;;;;;20.70;100927.00;;;;2223060;26;20262;-57
2024/04/14 03:24:28;;;;;;;2.30;1.13;;;;;20.70;100923.00;;;;2233610;26;20246;-56
2024/04/14 03:25:28;;;;;;;2.20;0.93;;;;;20.70;100931.00;;;;2218193;26;20259;-58
2024/04/14 03:26:29;;;;;;;2.63;1.00;;;;;20.70;100931.00;;;;2213820;26;20254;-56
2024/04/14 03:27:29;;;;;;;2.13;0.90;;;;;20.70;100933.00;;;;2220444;26;20294;-58
2024/04/14 03:28:30;;;;;;;1.97;0.90;;;;;20.70;100977.00;;;;2229736;26;20750;-59
2024/04/14 03:29:30;;;;;;;2.97;1.10;;;;;20.70;100936.00;;;;2231169;26;20622;-58
2024/04/14 03:30:30;;;;;;;2.43;1.30;;;;;20.70;100941.00;;;;2222348;26;20306;-59
2024/04/14 03:31:31;;;;;;;2.10;0.97;;;;;20.70;100938.00;;;;2225556;26;20612;-59
2024/04/14 03:32:31;;;;;;;2.77;1.40;;;;;20.70;100924.00;;;;2231140;26;20677;-57
2024/04/14 03:33:32;;;;;;;3.27;0.93;;;;;20.70;100925.00;;;;2232640;26;20304;-58
2024/04/14 03:34:32;;;;;;;2.00;1.00;;;;;20.70;100924.00;;;;2219864;26;20728;-55
2024/04/14 03:35:32;;;;;;;2.07;1.10;;;;;20.70;100927.00;;;;2229383;26;20602;-58
2024/04/14 03:36:32;;;;;;;2.00;1.00;;;;;20.70;100923.00;;;;2218483;26;20588;-57
2024/04/14 03:37:35;;;;;;;2.30;0.97;;;;;20.70;100923.00;;;;2226505;26;20639;-60
2024/04/14 03:38:36;;;;;;;2.20;1.05;;;;;20.70;100927.00;;;;2218753;26;20259;-58
2024/04/14 03:39:36;;;;;;;3.00;1.20;;;;;20.70;100930.00;;;;2225804;26;20972;-55
2024/04/14 03:40:37;;;;;;;2.10;1.00;;;;;20.70;100935.00;;;;2229916;26;20321;-57
2024/04/14 03:41:37;;;;;;;2.10;1.03;;;;;20.70;100924.00;;;;2220679;26;20266;-56
2024/04/14 03:42:37;;;;;;;2.00;0.93;;;;;20.70;100929.00;;;;2218185;26;20321;-55
2024/04/14 03:43:38;;;;;;;1.70;0.80;;;;;20.70;100932.00;;;;2217861;26;20290;-57
2024/04/14 03:44:38;;;;;;;1.83;0.83;;;;;20.60;100939.00;;;;2228624;26;20396;-60
2024/04/14 03:45:42;;;;;;;2.40;1.10;;;;;20.60;100927.00;;;;2231483;26;21034;-56
2024/04/14 03:46:42;;;;;;;2.58;1.17;;;;;20.60;100922.00;;;;2220130;26;21040;-58
2024/04/14 03:47:43;;;;;;;3.60;1.27;;;;;20.60;100928.00;;;;2225249;26;20273;-55
2024/04/14 03:48:43;;;;;;;3.60;1.27;;;;;20.60;100931.00;;;;2229965;26;20292;-57
2024/04/14 03:49:43;;;;;;;2.57;1.47;;;;;20.60;100931.00;;;;2224139;26;20274;-56
2024/04/14 03:50:45;;;;;;;4.33;1.00;;;;;20.60;100927.00;;;;2227931;26;20289;-60
2024/04/14 03:51:46;;;;;;;2.53;1.20;;;;;20.70;100924.00;;;;2207422;26;20259;-58
2024/04/14 03:52:46;;;;;;;2.27;1.27;;;;;20.60;100928.00;;;;2226557;26;20636;-59
2024/04/14 03:53:46;;;;;;;2.67;1.10;;;;;20.60;100926.00;;;;2218679;26;20302;-59
2024/04/14 03:54:47;;;;;;;2.37;1.13;;;;;20.60;100931.00;;;;2225448;26;20589;-57
2024/04/14 03:55:48;;;;;;;2.17;0.97;;;;;20.70;100929.00;;;;2223137;26;20636;-58
2024/04/14 03:56:48;;;;;;;2.85;1.42;;;;;20.70;100930.00;;;;2207515;26;20343;-58
2024/04/14 03:57:48;;;;;;;2.90;1.17;;;;;20.70;100803.00;;;;2229619;26;21017;-57
2024/04/14 03:58:49;;;;;;;2.40;1.20;;;;;20.70;100927.00;;;;2217797;26;20461;-57
2024/04/14 03:59:49;;;;;;;2.40;1.20;;;;;20.20;100934.00;;;;2230004;26;20250;-56
2024/04/14 04:00:49;;;;;;;2.40;1.00;;;;;20.40;100928.00;;;;2225751;26;20296;-56
2024/04/14 04:01:50;;;;;;;2.43;1.23;;;;;20.70;100932.00;;;;2209345;26;20247;-56
2024/04/14 04:02:50;;;;;;;1.90;0.90;;;;;20.70;100934.00;;;;2229497;26;20250;-58
2024/04/14 04:03:51;;;;;;;2.80;1.10;;;;;20.70;100934.00;;;;2220861;26;20259;-58
2024/04/14 04:04:51;;;;;;;3.20;1.40;;;;;20.70;100929.00;;;;2233134;26;20254;-58
2024/04/14 04:05:54;;;;;;;2.30;1.10;;;;;20.70;100937.00;;;;2221116;26;20486;-55
2024/04/14 04:06:54;;;;;;;2.80;1.08;;;;;20.70;100941.00;;;;2213255;26;20293;-56
2024/04/14 04:07:54;;;;;;;2.13;1.03;;;;;20.70;100937.00;;;;2229415;26;20328;-56
2024/04/14 04:08:55;;;;;;;2.73;1.13;;;;;20.70;100935.00;;;;2221069;26;20259;-57
2024/04/14 04:09:55;;;;;;;1.90;0.83;;;;;20.70;100937.00;;;;2232666;26;20304;-57
2024/04/14 04:11:02;;;;;;;2.87;1.30;;;;;20.70;100946.00;;;;2209329;26;20255;-56
2024/04/14 04:12:03;;;;;;;2.08;0.98;;;;;20.70;100938.00;;;;2220592;26;20584;-57
2024/04/14 04:13:04;;;;;;;3.30;1.33;;;;;20.60;100943.00;;;;2217179;26;20255;-57
2024/04/14 04:14:04;;;;;;;3.57;1.33;;;;;20.60;100934.00;;;;2229970;26;20476;-57
2024/04/14 04:15:05;;;;;;;2.37;1.20;;;;;20.60;100935.00;;;;2226854;26;20255;-57
2024/04/14 04:16:06;;;;;;;2.23;0.90;;;;;20.60;100937.00;;;;2208398;26;20251;-58
2024/04/14 04:17:06;;;;;;;2.07;0.97;;;;;20.60;100942.00;;;;2227136;26;20547;-59
2024/04/14 04:18:06;;;;;;;2.40;1.03;;;;;20.60;100941.00;;;;2225384;26;20247;-55
2024/04/14 04:19:06;;;;;;;2.00;0.93;;;;;20.60;100944.00;;;;2224571;26;20242;-55
2024/04/14 04:20:07;;;;;;;2.50;1.03;;;;;20.60;100947.00;;;;2232520;26;20293;-57
2024/04/14 04:21:09;;;;;;;2.20;1.00;;;;;20.60;100950.00;;;;2206927;26;20247;-57
2024/04/14 04:22:09;;;;;;;4.07;1.27;;;;;20.70;100942.00;;;;2223356;26;20251;-57
2024/04/14 04:23:09;;;;;;;2.73;0.93;;;;;20.70;100952.00;;;;2221789;26;20365;-58
2024/04/14 04:24:09;;;;;;;2.40;1.20;;;;;20.60;100950.00;;;;2225427;26;20251;-58
2024/04/14 04:25:10;;;;;;;2.43;1.00;;;;;20.60;100955.00;;;;2220565;26;20244;-58
2024/04/14 04:26:10;;;;;;;2.80;1.20;;;;;20.60;100956.00;;;;2214834;26;20293;-57
2024/04/14 04:27:11;;;;;;;1.90;1.00;;;;;20.60;100948.00;;;;2231850;26;20349;-58
2024/04/14 04:28:11;;;;;;;2.33;1.07;;;;;20.60;100948.00;;;;2212862;26;20243;-56
2024/04/14 04:29:11;;;;;;;2.80;1.30;;;;;20.60;100955.00;;;;2223495;26;20249;-58
2024/04/14 04:30:12;;;;;;;2.13;1.03;;;;;20.60;100957.00;;;;2222759;26;20262;-57
2024/04/14 04:31:12;;;;;;;2.77;0.90;;;;;20.70;100961.00;;;;2216886;26;20732;-59
2024/04/14 04:32:16;;;;;;;2.27;1.27;;;;;20.60;100955.00;;;;2226591;26;20251;-59
2024/04/14 04:33:16;;;;;;;1.95;0.93;;;;;20.70;100960.00;;;;2216418;26;20476;-59
2024/04/14 04:34:17;;;;;;;2.63;1.10;;;;;20.60;100959.00;;;;2225336;26;20251;-59
2024/04/14 04:35:17;;;;;;;2.87;1.10;;;;;20.60;100958.00;;;;2218268;26;20255;-55
2024/04/14 04:36:18;;;;;;;2.30;0.80;;;;;20.60;100965.00;;;;2207609;26;20255;-55
2024/04/14 04:37:19;;;;;;;2.20;1.00;;;;;20.70;100966.00;;;;2223526;26;20262;-56
2024/04/14 04:38:20;;;;;;;2.43;0.80;;;;;20.70;100968.00;;;;2220837;26;20369;-58
2024/04/14 04:39:20;;;;;;;2.03;0.90;;;;;20.60;100961.00;;;;2216945;26;20296;-57
2024/04/14 04:40:21;;;;;;;2.93;1.03;;;;;20.60;100959.00;;;;2232482;26;20286;-59
2024/04/14 04:41:22;;;;;;;1.90;0.90;;;;;20.70;100968.00;;;;2213097;26;20323;-55
2024/04/14 04:42:22;;;;;;;2.20;1.10;;;;;20.70;100967.00;;;;2226515;26;20297;-58
2024/04/14 04:43:23;;;;;;;2.40;1.00;;;;;20.60;100967.00;;;;2231511;26;20261;-57
2024/04/14 04:44:23;;;;;;;2.23;1.03;;;;;20.60;100958.00;;;;2225316;26;20317;-57
2024/04/14 04:45:23;;;;;;;2.40;1.00;;;;;20.70;100964.00;;;;2216658;26;20815;-56
2024/04/14 04:46:24;;;;;;;2.33;1.17;;;;;20.70;100968.00;;;;2209080;26;20360;-58
2024/04/14 04:47:24;;;;;;;2.67;1.50;;;;;20.60;100965.00;;;;2226005;26;20266;-56
2024/04/14 04:48:24;;;;;;;2.07;1.00;;;;;20.60;100983.00;;;;2217910;26;20305;-58
2024/04/14 04:49:25;;;;;;;2.27;1.07;;;;;20.70;100976.00;;;;2218657;26;20301;-58
2024/04/14 04:50:25;;;;;;;2.70;0.83;;;;;20.70;100972.00;;;;2218040;26;20688;-57
2024/04/14 04:51:27;;;;;;;2.33;1.00;;;;;20.60;100967.00;;;;2210272;26;20299;-57
2024/04/14 04:52:27;;;;;;;3.55;1.35;;;;;20.60;100962.00;;;;2217979;26;20305;-59
2024/04/14 04:53:28;;;;;;;2.97;1.00;;;;;20.70;100971.00;;;;2216631;26;20298;-58
2024/04/14 04:54:28;;;;;;;2.93;1.10;;;;;20.60;100965.00;;;;2219214;26;20775;-58
2024/04/14 04:55:28;;;;;;;2.63;0.97;;;;;20.60;100969.00;;;;2226143;26;20801;-56
2024/04/14 04:56:29;;;;;;;2.20;1.10;;;;;20.60;100976.00;;;;2213649;26;20258;-56
2024/04/14 04:57:29;;;;;;;2.20;1.00;;;;;20.70;100967.00;;;;2229242;26;20262;-57
2024/04/14 04:58:29;;;;;;;2.43;0.97;;;;;20.70;100972.00;;;;2220864;26;20355;-56
2024/04/14 04:59:30;;;;;;;2.23;1.00;;;;;20.70;100973.00;;;;2218643;26;20415;-57